createdAt,value
2019-03-28T00:01:48.415Z,4.20
2019-03-28T00:04:18.429Z,4.20
2019-03-28T00:06:48.510Z,4.20
2019-03-28T00:09:19.315Z,4.20
2019-03-28T00:11:49.654Z,4.20
2019-03-28T00:14:19.662Z,4.20
2019-03-28T00:16:49.661Z,4.30
2019-03-28T00:19:19.650Z,4.30
2019-03-28T00:21:49.655Z,4.30
2019-03-28T00:24:26.743Z,4.40
2019-03-28T00:26:56.719Z,4.40
2019-03-28T00:29:26.701Z,4.40
2019-03-28T00:31:56.733Z,4.50
2019-03-28T00:34:27.057Z,4.50
2019-03-28T00:36:57.047Z,4.50
2019-03-28T00:39:27.051Z,4.50
2019-03-28T00:41:57.113Z,4.60
2019-03-28T00:44:27.096Z,4.60
2019-03-28T00:46:57.117Z,4.70
2019-03-28T00:49:27.095Z,4.70
2019-03-28T00:51:57.085Z,4.80
2019-03-28T00:54:27.076Z,4.80
2019-03-28T00:56:57.044Z,4.90
2019-03-28T00:59:27.039Z,4.90
2019-03-28T01:01:57.079Z,5.00
2019-03-28T01:04:27.286Z,5.00
2019-03-28T01:06:57.371Z,5.10
2019-03-28T01:09:27.373Z,5.10
2019-03-28T01:11:57.391Z,5.10
2019-03-28T01:14:27.307Z,5.20
2019-03-28T01:16:57.352Z,5.30
2019-03-28T01:19:27.323Z,5.30
2019-03-28T01:21:57.320Z,5.40
2019-03-28T01:24:27.355Z,5.50
2019-03-28T01:26:58.982Z,5.50
2019-03-28T01:29:29.327Z,5.60
2019-03-28T01:31:59.318Z,5.60
2019-03-28T01:34:29.288Z,5.70
2019-03-28T01:36:59.348Z,5.70
2019-03-28T01:39:29.366Z,5.80
2019-03-28T01:41:59.355Z,5.80
2019-03-28T01:44:29.359Z,5.90
2019-03-28T01:46:59.687Z,5.90
2019-03-28T01:49:29.683Z,5.90
2019-03-28T01:51:59.694Z,6.00
2019-03-28T01:54:29.688Z,6.10
2019-03-28T01:57:10.268Z,6.10
2019-03-28T01:59:31.635Z,6.20
2019-03-28T02:02:01.621Z,6.20
2019-03-28T02:04:31.595Z,6.30
2019-03-28T02:07:01.615Z,6.30
2019-03-28T02:09:32.310Z,6.30
2019-03-28T02:12:02.741Z,6.30
2019-03-28T02:14:33.332Z,6.40
2019-03-28T02:17:03.291Z,6.40
2019-03-28T02:19:33.306Z,6.40
2019-03-28T02:22:03.291Z,6.50
2019-03-28T02:24:33.279Z,6.50
2019-03-28T02:27:04.232Z,6.50
2019-03-28T02:29:34.251Z,6.50
2019-03-28T02:32:04.248Z,6.60
2019-03-28T02:34:34.217Z,6.60
2019-03-28T02:37:04.224Z,6.60
2019-03-28T02:39:34.229Z,6.70
2019-03-28T02:42:04.247Z,6.70
2019-03-28T02:44:34.351Z,6.70
2019-03-28T02:47:04.390Z,6.70
2019-03-28T02:49:34.396Z,6.80
2019-03-28T02:52:04.405Z,6.80
2019-03-28T02:54:34.388Z,6.80
2019-03-28T02:57:04.508Z,6.80
2019-03-28T02:59:34.557Z,6.80
2019-03-28T03:02:04.686Z,6.80
2019-03-28T03:04:34.732Z,6.80
2019-03-28T03:07:04.756Z,6.80
2019-03-28T03:09:35.637Z,6.80
2019-03-28T03:12:06.047Z,6.90
2019-03-28T03:14:36.107Z,6.90
2019-03-28T03:17:06.108Z,6.90
2019-03-28T03:19:36.085Z,6.90
2019-03-28T03:22:06.125Z,6.90
2019-03-28T03:24:36.936Z,6.90
2019-03-28T03:27:06.998Z,6.80
2019-03-28T03:29:37.001Z,6.80
2019-03-28T03:32:07.033Z,6.80
2019-03-28T03:34:37.012Z,6.80
2019-03-28T03:37:06.989Z,6.80
2019-03-28T03:39:36.982Z,6.80
2019-03-28T03:42:06.977Z,6.80
2019-03-28T03:44:37.002Z,6.80
2019-03-28T03:47:06.995Z,6.80
2019-03-28T03:49:36.964Z,6.80
2019-03-28T03:52:06.968Z,6.80
2019-03-28T03:54:36.972Z,6.80
2019-03-28T03:57:07.028Z,6.80
2019-03-28T03:59:37.872Z,6.80
2019-03-28T04:02:17.151Z,6.80
2019-03-28T04:04:56.878Z,6.80
2019-03-28T04:07:36.813Z,6.80
2019-03-28T04:10:12.421Z,6.80
2019-03-28T04:12:50.652Z,6.80
2019-03-28T04:15:28.064Z,6.80
2019-03-28T04:17:58.120Z,6.80
2019-03-28T04:20:28.133Z,6.80
2019-03-28T04:22:58.210Z,6.80
2019-03-28T04:25:28.360Z,6.80
2019-03-28T04:27:59.024Z,6.80
2019-03-28T04:30:29.043Z,6.80
2019-03-28T04:32:59.013Z,6.90
2019-03-28T04:35:28.999Z,6.90
2019-03-28T04:37:59.011Z,6.90
2019-03-28T04:40:28.973Z,6.90
2019-03-28T04:42:59.023Z,6.90
2019-03-28T04:45:28.961Z,6.90
2019-03-28T04:47:58.919Z,6.80
2019-03-28T04:50:29.210Z,6.90
2019-03-28T04:52:59.248Z,6.90
2019-03-28T04:55:29.210Z,6.80
2019-03-28T04:57:59.343Z,6.80
2019-03-28T05:00:29.367Z,6.90
2019-03-28T05:02:59.396Z,6.80
2019-03-28T05:05:29.395Z,6.90
2019-03-28T05:07:59.423Z,6.90
2019-03-28T05:10:29.779Z,6.80
2019-03-28T05:12:59.967Z,6.90
2019-03-28T05:15:30.016Z,6.90
2019-03-28T05:17:59.988Z,6.90
2019-03-28T05:20:29.961Z,6.90
2019-03-28T05:22:59.956Z,6.90
2019-03-28T05:25:29.970Z,6.90
2019-03-28T05:27:59.952Z,6.90
2019-03-28T05:30:29.979Z,6.90
2019-03-28T05:32:59.970Z,7.00
2019-03-28T05:35:29.927Z,7.00
2019-03-28T05:37:59.949Z,7.00
2019-03-28T05:40:29.915Z,7.00
2019-03-28T05:42:59.896Z,7.00
2019-03-28T05:45:29.915Z,7.00
2019-03-28T05:48:00.413Z,7.00
2019-03-28T05:50:32.571Z,7.10
2019-03-28T05:53:02.571Z,7.10
2019-03-28T05:55:32.592Z,7.10
2019-03-28T05:58:02.572Z,7.10
2019-03-28T06:00:33.487Z,7.10
2019-03-28T06:03:03.460Z,7.20
2019-03-28T06:05:33.515Z,7.10
2019-03-28T06:08:03.511Z,7.20
2019-03-28T06:10:33.487Z,7.20
2019-03-28T06:13:03.456Z,7.20
2019-03-28T06:15:33.471Z,7.30
2019-03-28T06:18:03.469Z,7.30
2019-03-28T06:20:33.431Z,7.30
2019-03-28T06:23:03.427Z,7.30
2019-03-28T06:25:33.385Z,7.30
2019-03-28T06:28:03.368Z,7.40
2019-03-28T06:30:33.412Z,7.30
2019-03-28T06:33:03.415Z,7.30
2019-03-28T06:35:33.369Z,7.40
2019-03-28T06:38:03.447Z,7.40
2019-03-28T06:40:33.503Z,7.40
2019-03-28T06:43:03.477Z,7.40
2019-03-28T06:45:33.518Z,7.40
2019-03-28T06:48:03.500Z,7.50
2019-03-28T06:50:33.485Z,7.50
2019-03-28T06:53:03.490Z,7.50
2019-03-28T06:55:35.583Z,7.50
2019-03-28T06:58:05.108Z,7.50
2019-03-28T07:00:35.144Z,7.50
2019-03-28T07:03:05.183Z,7.50
2019-03-28T07:05:35.175Z,7.50
2019-03-28T07:08:05.261Z,7.50
2019-03-28T07:10:35.230Z,7.50
2019-03-28T07:13:05.204Z,7.50
2019-03-28T07:15:36.726Z,7.50
2019-03-28T07:18:06.923Z,7.50
2019-03-28T07:20:37.787Z,7.50
2019-03-28T07:23:07.773Z,7.50
2019-03-28T07:25:37.767Z,7.50
2019-03-28T07:28:07.756Z,7.50
2019-03-28T07:30:37.808Z,7.50
2019-03-28T07:33:07.795Z,7.60
2019-03-28T07:35:37.754Z,7.60
2019-03-28T07:38:07.823Z,7.60
2019-03-28T07:40:37.807Z,7.70
2019-03-28T07:43:07.766Z,7.70
2019-03-28T07:45:37.801Z,7.70
2019-03-28T07:48:07.775Z,7.70
2019-03-28T07:50:37.791Z,7.70
2019-03-28T07:53:07.785Z,7.80
2019-03-28T07:55:37.764Z,7.80
2019-03-28T07:58:08.599Z,7.90
2019-03-28T08:00:39.278Z,7.90
2019-03-28T08:03:09.239Z,8.00
2019-03-28T08:05:39.198Z,8.00
2019-03-28T08:08:09.224Z,8.00
2019-03-28T08:10:39.202Z,8.10
2019-03-28T08:13:09.175Z,8.10
2019-03-28T08:15:39.213Z,8.10
2019-03-28T08:18:09.304Z,8.20
2019-03-28T08:20:39.279Z,8.20
2019-03-28T08:23:09.279Z,8.20
2019-03-28T08:25:39.307Z,8.20
2019-03-28T08:28:09.736Z,8.10
2019-03-28T08:30:40.384Z,8.20
2019-03-28T08:33:10.572Z,8.20
2019-03-28T08:35:40.994Z,8.20
2019-03-28T08:38:11.023Z,8.20
2019-03-28T08:40:42.471Z,8.30
2019-03-28T08:43:12.855Z,8.30
2019-03-28T08:45:42.879Z,8.30
2019-03-28T08:48:12.865Z,8.30
2019-03-28T08:50:42.915Z,8.30
2019-03-28T08:53:12.914Z,8.30
2019-03-28T08:55:42.899Z,8.30
2019-03-28T08:58:12.903Z,8.30
2019-03-28T09:00:51.673Z,8.40
2019-03-28T09:03:14.660Z,8.40
2019-03-28T09:05:44.657Z,8.50
2019-03-28T09:08:14.680Z,8.50
2019-03-28T09:10:44.651Z,8.50
2019-03-28T09:13:14.641Z,8.60
2019-03-28T09:15:44.715Z,8.60
2019-03-28T09:18:14.890Z,8.60
2019-03-28T09:20:44.855Z,8.70
2019-03-28T09:23:14.852Z,8.70
2019-03-28T09:25:44.852Z,8.70
2019-03-28T09:28:14.872Z,8.70
2019-03-28T09:30:49.617Z,8.70
2019-03-28T09:33:17.275Z,8.70
2019-03-28T09:35:47.352Z,8.70
2019-03-28T09:38:17.335Z,8.80
2019-03-28T09:40:47.371Z,8.90
2019-03-28T09:43:17.308Z,8.90
2019-03-28T09:45:48.177Z,8.90
2019-03-28T09:48:18.184Z,9.00
2019-03-28T09:50:48.128Z,9.00
2019-03-28T09:53:19.076Z,9.00
2019-03-28T09:55:49.067Z,9.00
2019-03-28T09:58:19.721Z,9.00
2019-03-28T10:01:02.115Z,9.00
2019-03-28T10:03:21.524Z,9.10
2019-03-28T10:05:51.637Z,9.10
2019-03-28T10:08:21.624Z,9.10
2019-03-28T10:10:51.621Z,9.10
2019-03-28T10:13:21.605Z,9.10
2019-03-28T10:15:51.669Z,9.10
2019-03-28T10:18:21.658Z,9.20
2019-03-28T10:20:51.754Z,9.30
2019-03-28T10:23:21.835Z,9.30
2019-03-28T10:25:51.859Z,9.30
2019-03-28T10:28:21.880Z,9.40
2019-03-28T10:30:51.895Z,9.50
2019-03-28T10:33:21.868Z,9.60
2019-03-28T10:35:51.855Z,9.60
2019-03-28T10:38:21.870Z,9.60
2019-03-28T10:40:53.658Z,9.60
2019-03-28T10:43:23.638Z,9.60
2019-03-28T10:45:53.652Z,9.60
2019-03-28T10:48:23.660Z,9.60
2019-03-28T10:50:53.617Z,9.60
2019-03-28T10:53:23.683Z,9.60
2019-03-28T10:55:53.663Z,9.70
2019-03-28T10:58:24.648Z,9.70
2019-03-28T11:00:54.999Z,9.70
2019-03-28T11:03:25.835Z,9.70
2019-03-28T11:05:55.826Z,9.70
2019-03-28T11:08:25.844Z,9.70
2019-03-28T11:10:56.535Z,9.70
2019-03-28T11:13:26.733Z,9.80
2019-03-28T11:15:56.742Z,9.90
2019-03-28T11:18:26.740Z,9.90
2019-03-28T11:20:56.695Z,10.00
2019-03-28T11:23:26.788Z,10.00
2019-03-28T11:25:57.446Z,10.10
2019-03-28T11:28:27.791Z,10.10
2019-03-28T11:30:57.816Z,10.20
2019-03-28T11:33:27.801Z,10.30
2019-03-28T11:35:57.767Z,10.30
2019-03-28T11:38:28.776Z,10.30
2019-03-28T11:40:58.882Z,10.30
2019-03-28T11:43:29.033Z,10.40
2019-03-28T11:45:59.060Z,10.40
2019-03-28T11:48:29.051Z,10.40
2019-03-28T11:50:59.083Z,10.40
2019-03-28T11:53:29.101Z,10.40
2019-03-28T11:55:59.090Z,10.50
2019-03-28T11:58:29.060Z,10.50
2019-03-28T12:00:59.043Z,10.50
2019-03-28T12:03:29.091Z,10.60
2019-03-28T12:05:59.066Z,10.60
2019-03-28T12:08:29.084Z,10.60
2019-03-28T12:10:59.375Z,10.60
2019-03-28T12:13:29.365Z,10.60
2019-03-28T12:15:59.427Z,10.60
2019-03-28T12:18:29.439Z,10.70
2019-03-28T12:20:59.432Z,10.70
2019-03-28T12:23:29.463Z,10.60
2019-03-28T12:25:59.512Z,10.60
2019-03-28T12:28:29.510Z,10.60
2019-03-28T12:30:59.578Z,10.60
2019-03-28T12:33:29.633Z,10.70
2019-03-28T12:35:59.611Z,10.70
2019-03-28T12:38:29.635Z,10.70
2019-03-28T12:40:59.672Z,10.70
2019-03-28T12:43:29.716Z,10.80
2019-03-28T12:45:59.855Z,10.80
2019-03-28T12:48:29.856Z,10.80
2019-03-28T12:51:00.749Z,10.80
2019-03-28T12:53:31.171Z,10.80
2019-03-28T12:56:01.148Z,10.80
2019-03-28T12:58:31.169Z,10.80
2019-03-28T13:01:01.227Z,10.80
2019-03-28T13:03:44.481Z,10.90
2019-03-28T13:06:02.877Z,10.90
2019-03-28T13:08:32.927Z,10.90
2019-03-28T13:11:03.375Z,10.90
2019-03-28T13:13:33.627Z,10.90
2019-03-28T13:16:05.489Z,10.90
2019-03-28T13:18:36.226Z,10.90
2019-03-28T13:21:13.281Z,10.90
2019-03-28T13:23:39.260Z,10.90
2019-03-28T13:26:09.268Z,11.00
2019-03-28T13:28:39.272Z,11.10
2019-03-28T13:31:09.255Z,11.10
2019-03-28T13:33:39.279Z,11.20
2019-03-28T13:36:09.276Z,11.30
2019-03-28T13:38:39.267Z,11.40
2019-03-28T13:41:09.359Z,11.40
2019-03-28T13:43:39.357Z,11.60
2019-03-28T13:46:09.339Z,11.60
2019-03-28T13:48:39.311Z,11.70
2019-03-28T13:51:09.278Z,11.80
2019-03-28T13:53:40.088Z,11.80
2019-03-28T13:56:10.400Z,11.80
2019-03-28T13:58:40.419Z,11.80
2019-03-28T14:01:10.409Z,11.90
2019-03-28T14:03:40.404Z,12.10
2019-03-28T14:06:10.392Z,12.20
2019-03-28T14:08:40.375Z,12.20
2019-03-28T14:11:10.407Z,12.20
2019-03-28T14:13:40.400Z,12.30
2019-03-28T14:16:10.364Z,12.30
2019-03-28T14:18:40.409Z,12.30
2019-03-28T14:21:10.380Z,12.30
2019-03-28T14:23:40.371Z,12.40
2019-03-28T14:26:10.451Z,12.40
2019-03-28T14:28:40.465Z,12.50
2019-03-28T14:31:10.448Z,12.60
2019-03-28T14:33:40.519Z,12.60
2019-03-28T14:36:10.512Z,12.60
2019-03-28T14:38:40.500Z,12.70
2019-03-28T14:41:10.503Z,12.60
2019-03-28T14:43:40.483Z,12.60
2019-03-28T14:46:10.463Z,12.60
2019-03-28T14:48:40.511Z,12.70
2019-03-28T14:51:10.687Z,12.70
2019-03-28T14:53:40.652Z,12.70
2019-03-28T14:56:11.345Z,12.70
2019-03-28T14:58:42.193Z,12.70
2019-03-28T15:01:12.384Z,12.80
2019-03-28T15:03:42.409Z,12.80
2019-03-28T15:06:12.384Z,12.70
2019-03-28T15:08:42.990Z,12.70
2019-03-28T15:11:14.739Z,12.60
2019-03-28T15:13:44.757Z,12.60
2019-03-28T15:16:14.745Z,12.50
2019-03-28T15:18:45.027Z,12.50
2019-03-28T15:21:15.011Z,12.50
2019-03-28T15:23:45.013Z,12.40
2019-03-28T15:26:15.083Z,12.40
2019-03-28T15:28:45.055Z,12.40
2019-03-28T15:31:15.115Z,12.40
2019-03-28T15:33:45.124Z,12.40
2019-03-28T15:36:15.147Z,12.50
2019-03-28T15:38:45.143Z,12.50
2019-03-28T15:41:15.180Z,12.60
2019-03-28T15:43:45.139Z,12.60
2019-03-28T15:46:15.163Z,12.50
2019-03-28T15:48:48.163Z,12.50
2019-03-28T15:51:18.163Z,12.50
2019-03-28T15:53:48.252Z,12.40
2019-03-28T15:56:18.266Z,12.40
2019-03-28T15:58:48.230Z,12.40
2019-03-28T16:01:18.429Z,12.40
2019-03-28T16:03:53.580Z,12.30
2019-03-28T16:06:23.968Z,12.20
2019-03-28T16:08:55.677Z,12.20
2019-03-28T16:11:25.753Z,12.10
2019-03-28T16:13:57.064Z,12.10
2019-03-28T16:16:28.259Z,12.00
2019-03-28T16:19:01.585Z,12.00
2019-03-28T16:21:32.127Z,11.90
2019-03-28T16:24:02.208Z,11.90
2019-03-28T16:26:32.317Z,11.80
2019-03-28T16:29:02.296Z,11.70
2019-03-28T16:31:33.504Z,11.60
2019-03-28T16:34:07.315Z,11.60
2019-03-28T16:36:36.185Z,11.50
2019-03-28T16:39:07.907Z,11.40
2019-03-28T16:41:39.551Z,11.30
2019-03-28T16:44:09.553Z,11.20
2019-03-28T16:46:41.336Z,11.20
2019-03-28T16:49:11.372Z,11.10
2019-03-28T16:51:43.462Z,11.00
2019-03-28T16:54:15.072Z,10.90
2019-03-28T16:56:45.141Z,10.80
2019-03-28T16:59:15.224Z,10.70
2019-03-28T17:01:45.359Z,10.70
2019-03-28T17:04:20.938Z,10.60
2019-03-28T17:06:47.276Z,10.50
2019-03-28T17:09:17.587Z,10.50
2019-03-28T17:11:48.091Z,10.40
2019-03-28T17:14:18.152Z,10.30
2019-03-28T17:16:49.665Z,10.20
2019-03-28T17:19:19.832Z,10.20
2019-03-28T17:21:49.975Z,10.10
2019-03-28T17:24:19.891Z,10.00
2019-03-28T17:26:49.959Z,10.00
2019-03-28T17:29:19.985Z,9.90
2019-03-28T17:31:49.973Z,9.80
2019-03-28T17:34:33.680Z,9.80
2019-03-28T17:36:51.750Z,9.70
2019-03-28T17:39:21.857Z,9.70
2019-03-28T17:41:51.937Z,9.60
2019-03-28T17:44:21.991Z,9.50
2019-03-28T17:46:51.997Z,9.50
2019-03-28T17:49:23.167Z,9.40
2019-03-28T17:51:53.153Z,9.30
2019-03-28T17:54:23.279Z,9.30
2019-03-28T17:56:53.330Z,9.30
2019-03-28T17:59:23.371Z,9.20
2019-03-28T18:01:54.084Z,9.10
2019-03-28T18:04:29.150Z,9.10
2019-03-28T18:06:59.583Z,9.00
2019-03-28T18:09:35.873Z,9.00
2019-03-28T18:12:06.026Z,9.00
2019-03-28T18:14:36.024Z,8.90
2019-03-28T18:17:06.681Z,8.80
2019-03-28T18:19:36.673Z,8.80
2019-03-28T18:22:06.687Z,8.80
2019-03-28T18:24:36.755Z,8.70
2019-03-28T18:27:06.775Z,8.70
2019-03-28T18:29:36.884Z,8.70
2019-03-28T18:32:06.914Z,8.60
2019-03-28T18:34:36.943Z,8.60
2019-03-28T18:37:06.980Z,8.60
2019-03-28T18:39:36.979Z,8.50
2019-03-28T18:42:06.959Z,8.50
2019-03-28T18:44:36.967Z,8.40
2019-03-28T18:47:07.026Z,8.40
2019-03-28T18:49:37.124Z,8.30
2019-03-28T18:52:07.447Z,8.30
2019-03-28T18:54:37.668Z,8.30
2019-03-28T18:57:07.815Z,8.20
2019-03-28T18:59:38.004Z,8.20
2019-03-28T19:02:08.023Z,8.10
2019-03-28T19:04:38.085Z,8.10
2019-03-28T19:07:08.064Z,8.10
2019-03-28T19:09:38.181Z,8.00
2019-03-28T19:12:08.267Z,8.00
2019-03-28T19:14:38.416Z,8.00
2019-03-28T19:17:08.446Z,8.00
2019-03-28T19:19:39.863Z,8.00
2019-03-28T19:22:10.013Z,8.00
2019-03-28T19:24:40.039Z,8.00
2019-03-28T19:27:10.082Z,8.00
2019-03-28T19:29:40.066Z,7.90
2019-03-28T19:32:10.368Z,7.90
2019-03-28T19:34:40.359Z,7.90
2019-03-28T19:37:10.588Z,7.90
2019-03-28T19:39:40.879Z,7.90
2019-03-28T19:42:10.919Z,7.90
2019-03-28T19:44:42.147Z,7.90
2019-03-28T19:47:12.254Z,7.90
2019-03-28T19:49:42.227Z,7.90
2019-03-28T19:52:13.332Z,7.80
2019-03-28T19:54:43.891Z,7.80
2019-03-28T19:57:13.969Z,7.80
2019-03-28T19:59:44.433Z,7.80
2019-03-28T20:02:14.488Z,7.70
2019-03-28T20:04:44.526Z,7.70
2019-03-28T20:07:21.355Z,7.70
2019-03-28T20:09:46.407Z,7.60
2019-03-28T20:12:16.440Z,7.60
2019-03-28T20:14:46.425Z,7.60
2019-03-28T20:17:17.185Z,7.60
2019-03-28T20:19:47.399Z,7.60
2019-03-28T20:22:17.676Z,7.60
2019-03-28T20:24:48.128Z,7.60
2019-03-28T20:27:18.255Z,7.60
2019-03-28T20:29:48.356Z,7.50
2019-03-28T20:32:18.523Z,7.50
2019-03-28T20:34:49.256Z,7.50
2019-03-28T20:37:19.451Z,7.40
2019-03-28T20:39:49.587Z,7.40
2019-03-28T20:42:19.716Z,7.40
2019-03-28T20:44:49.805Z,7.50
2019-03-28T20:47:20.048Z,7.50
2019-03-28T20:49:50.023Z,7.50
2019-03-28T20:52:20.004Z,7.60
2019-03-28T20:54:50.071Z,7.60
2019-03-28T20:57:20.083Z,7.60
2019-03-28T20:59:50.086Z,7.60
2019-03-28T21:02:20.083Z,7.60
2019-03-28T21:04:50.120Z,7.60
2019-03-28T21:07:21.757Z,7.60
2019-03-28T21:09:51.871Z,7.60
2019-03-28T21:12:21.876Z,7.60
2019-03-28T21:14:51.848Z,7.60
2019-03-28T21:17:21.980Z,7.60
2019-03-28T21:19:52.015Z,7.60
2019-03-28T21:22:22.077Z,7.60
2019-03-28T21:24:53.192Z,7.60
2019-03-28T21:27:23.215Z,7.60
2019-03-28T21:29:53.157Z,7.60
2019-03-28T21:32:23.163Z,7.60
2019-03-28T21:34:57.364Z,7.60
2019-03-28T21:37:27.352Z,7.60
2019-03-28T21:39:57.368Z,7.60
2019-03-28T21:42:27.402Z,7.50
2019-03-28T21:44:58.488Z,7.50
2019-03-28T21:47:28.814Z,7.50
2019-03-28T21:49:58.807Z,7.40
2019-03-28T21:52:28.863Z,7.40
2019-03-28T21:54:58.859Z,7.40
2019-03-28T21:57:28.863Z,7.30
2019-03-28T21:59:58.915Z,7.30
2019-03-28T22:02:28.963Z,7.20
2019-03-28T22:04:59.000Z,7.20
2019-03-28T22:07:29.032Z,7.20
2019-03-28T22:09:59.055Z,7.20
2019-03-28T22:12:29.895Z,7.20
2019-03-28T22:15:00.353Z,7.20
2019-03-28T22:17:30.653Z,7.30
2019-03-28T22:20:00.635Z,7.30
2019-03-28T22:22:49.429Z,7.30
2019-03-28T22:25:19.473Z,7.20
2019-03-28T22:27:49.511Z,7.20
2019-03-28T22:30:19.875Z,7.10
2019-03-28T22:32:50.056Z,7.10
2019-03-28T22:35:20.245Z,7.10
2019-03-28T22:37:50.303Z,7.10
2019-03-28T22:40:20.300Z,7.10
2019-03-28T22:42:50.331Z,7.10
2019-03-28T22:45:20.511Z,7.10
2019-03-28T22:47:50.511Z,7.10
2019-03-28T22:50:20.503Z,7.10
2019-03-28T22:52:50.588Z,7.00
2019-03-28T22:55:20.603Z,7.00
2019-03-28T22:57:53.825Z,7.00
2019-03-28T23:00:23.967Z,6.90
2019-03-28T23:02:54.847Z,6.90
2019-03-28T23:05:25.016Z,6.80
2019-03-28T23:07:55.139Z,6.80
2019-03-28T23:10:25.160Z,6.70
2019-03-28T23:12:55.140Z,6.70
2019-03-28T23:15:25.170Z,6.60
2019-03-28T23:17:55.169Z,6.60
2019-03-28T23:20:25.267Z,6.60
2019-03-28T23:22:55.351Z,6.60
2019-03-28T23:25:25.363Z,6.60
2019-03-28T23:27:55.439Z,6.60
2019-03-28T23:30:25.567Z,6.60
2019-03-28T23:32:55.563Z,6.60
2019-03-28T23:35:25.552Z,6.60
2019-03-28T23:37:55.551Z,6.60
2019-03-28T23:40:26.492Z,6.60
2019-03-28T23:42:56.960Z,6.60
2019-03-28T23:45:26.998Z,6.60
2019-03-28T23:47:56.980Z,6.60
2019-03-28T23:50:26.978Z,6.60
2019-03-28T23:52:56.956Z,6.60
2019-03-28T23:55:26.963Z,6.60
2019-03-28T23:57:56.948Z,6.60
